createdAt,value
2019-03-01T00:01:07.954Z,8.10
2019-03-01T00:03:37.467Z,8.10
2019-03-01T00:06:12.118Z,8.10
2019-03-01T00:09:06.409Z,8.10
2019-03-01T00:11:40.799Z,8.00
2019-03-01T00:14:18.357Z,8.00
2019-03-01T00:17:09.347Z,8.10
2019-03-01T00:20:06.574Z,8.10
2019-03-01T00:23:01.919Z,8.10
2019-03-01T00:25:55.827Z,8.00
2019-03-01T00:28:45.230Z,8.10
2019-03-01T00:31:33.355Z,8.10
2019-03-01T00:34:10.554Z,8.10
2019-03-01T00:36:50.804Z,8.10
2019-03-01T00:39:30.895Z,8.00
2019-03-01T00:42:10.683Z,8.00
2019-03-01T00:44:43.611Z,8.00
2019-03-01T00:47:12.081Z,7.90
2019-03-01T00:49:40.543Z,8.00
2019-03-01T00:52:09.231Z,8.00
2019-03-01T00:54:37.942Z,7.90
2019-03-01T00:57:07.009Z,8.00
2019-03-01T00:59:35.394Z,8.00
2019-03-01T01:02:04.044Z,8.00
2019-03-01T01:04:32.462Z,7.90
2019-03-01T01:07:01.053Z,7.90
2019-03-01T01:09:29.446Z,7.90
2019-03-01T01:11:58.078Z,7.90
2019-03-01T01:14:26.490Z,8.00
2019-03-01T01:16:57.872Z,8.00
2019-03-01T01:19:26.271Z,7.90
2019-03-01T01:21:54.684Z,8.00
2019-03-01T01:24:23.092Z,8.00
2019-03-01T01:26:51.731Z,8.00
2019-03-01T01:29:20.407Z,7.90
2019-03-01T01:31:48.899Z,7.90
2019-03-01T01:34:17.295Z,7.90
2019-03-01T01:36:45.686Z,7.90
2019-03-01T01:39:14.124Z,7.90
2019-03-01T01:41:42.570Z,7.90
2019-03-01T01:44:11.210Z,8.00
2019-03-01T01:46:42.302Z,7.90
2019-03-01T01:49:10.887Z,7.90
2019-03-01T01:51:39.691Z,7.90
2019-03-01T01:54:08.281Z,7.90
2019-03-01T01:56:36.710Z,7.90
2019-03-01T01:59:05.121Z,7.90
2019-03-01T02:01:33.516Z,7.90
2019-03-01T02:04:02.172Z,7.80
2019-03-01T02:06:30.946Z,7.80
2019-03-01T02:08:59.398Z,7.80
2019-03-01T02:11:27.801Z,7.80
2019-03-01T02:13:56.265Z,7.80
2019-03-01T02:16:24.756Z,7.80
2019-03-01T02:18:57.762Z,7.80
2019-03-01T02:21:23.400Z,7.80
2019-03-01T02:23:51.831Z,7.80
2019-03-01T02:26:20.482Z,7.70
2019-03-01T02:28:48.879Z,7.70
2019-03-01T02:31:17.628Z,7.70
2019-03-01T02:33:46.133Z,7.70
2019-03-01T02:36:14.755Z,7.70
2019-03-01T02:38:43.156Z,7.60
2019-03-01T02:41:11.783Z,7.60
2019-03-01T02:43:40.203Z,7.60
2019-03-01T02:46:08.866Z,7.60
2019-03-01T02:48:37.348Z,7.60
2019-03-01T02:51:05.745Z,7.60
2019-03-01T02:53:34.148Z,7.60
2019-03-01T02:56:02.794Z,7.60
2019-03-01T02:58:31.244Z,7.60
2019-03-01T03:00:59.702Z,7.60
2019-03-01T03:03:28.338Z,7.60
2019-03-01T03:06:13.691Z,7.60
2019-03-01T03:08:42.094Z,7.70
2019-03-01T03:11:10.511Z,7.70
2019-03-01T03:13:39.031Z,7.70
2019-03-01T03:16:07.422Z,7.60
2019-03-01T03:18:35.824Z,7.60
2019-03-01T03:21:04.234Z,7.60
2019-03-01T03:23:32.870Z,7.60
2019-03-01T03:26:01.455Z,7.50
2019-03-01T03:28:30.092Z,7.50
2019-03-01T03:30:58.523Z,7.50
2019-03-01T03:33:27.102Z,7.50
2019-03-01T03:35:55.499Z,7.50
2019-03-01T03:38:23.997Z,7.50
2019-03-01T03:40:52.410Z,7.50
2019-03-01T03:43:22.869Z,7.40
2019-03-01T03:45:51.188Z,7.40
2019-03-01T03:48:19.592Z,7.40
2019-03-01T03:50:47.988Z,7.30
2019-03-01T03:53:16.428Z,7.30
2019-03-01T03:55:45.083Z,7.40
2019-03-01T03:58:13.477Z,7.40
2019-03-01T04:00:41.886Z,7.40
2019-03-01T04:03:10.279Z,7.40
2019-03-01T04:05:38.696Z,7.40
2019-03-01T04:08:07.101Z,7.50
2019-03-01T04:10:35.503Z,7.50
2019-03-01T04:13:03.894Z,7.50
2019-03-01T04:15:32.337Z,7.50
2019-03-01T04:18:01.219Z,7.50
2019-03-01T04:20:29.848Z,7.50
2019-03-01T04:22:58.259Z,7.50
2019-03-01T04:25:26.668Z,7.40
2019-03-01T04:27:55.184Z,7.30
2019-03-01T04:30:23.671Z,7.30
2019-03-01T04:32:52.112Z,7.30
2019-03-01T04:35:20.832Z,7.20
2019-03-01T04:37:49.234Z,7.30
2019-03-01T04:40:17.802Z,7.20
2019-03-01T04:42:46.234Z,7.20
2019-03-01T04:45:16.487Z,7.20
2019-03-01T04:47:45.178Z,7.20
2019-03-01T04:50:13.960Z,7.30
2019-03-01T04:52:42.430Z,7.20
2019-03-01T04:55:13.357Z,7.30
2019-03-01T04:57:41.774Z,7.20
2019-03-01T05:00:18.230Z,7.30
2019-03-01T05:02:46.762Z,7.30
2019-03-01T05:05:15.941Z,7.30
2019-03-01T05:07:44.571Z,7.30
2019-03-01T05:10:14.063Z,7.40
2019-03-01T05:12:42.643Z,7.40
2019-03-01T05:15:14.611Z,7.40
2019-03-01T05:17:43.515Z,7.40
2019-03-01T05:20:12.067Z,7.40
2019-03-01T05:22:40.548Z,7.40
2019-03-01T05:25:10.587Z,7.40
2019-03-01T05:27:39.223Z,7.40
2019-03-01T05:30:10.763Z,7.40
2019-03-01T05:32:39.208Z,7.40
2019-03-01T05:35:08.803Z,7.40
2019-03-01T05:37:37.216Z,7.40
2019-03-01T05:40:08.927Z,7.40
2019-03-01T05:42:37.346Z,7.40
2019-03-01T05:45:11.730Z,7.40
2019-03-01T05:47:40.303Z,7.40
2019-03-01T05:50:11.766Z,7.40
2019-03-01T05:52:40.344Z,7.40
2019-03-01T05:55:09.903Z,7.40
2019-03-01T05:57:57.936Z,7.40
2019-03-01T06:00:26.701Z,7.40
2019-03-01T06:03:10.279Z,7.40
2019-03-01T06:05:38.913Z,7.40
2019-03-01T06:08:15.883Z,7.40
2019-03-01T06:10:50.803Z,7.40
2019-03-01T06:13:37.463Z,7.40
2019-03-01T06:16:11.596Z,7.40
2019-03-01T06:19:12.007Z,7.30
2019-03-01T06:21:55.711Z,7.40
2019-03-01T06:24:38.740Z,7.40
2019-03-01T06:27:38.258Z,7.40
2019-03-01T06:30:32.516Z,7.40
2019-03-01T06:33:34.021Z,7.40
2019-03-01T06:36:23.475Z,7.40
2019-03-01T06:39:22.495Z,7.40
2019-03-01T06:42:04.092Z,7.40
2019-03-01T06:44:38.250Z,7.40
2019-03-01T06:47:18.654Z,7.50
2019-03-01T06:50:04.048Z,7.40
2019-03-01T06:52:32.464Z,7.50
2019-03-01T06:55:00.871Z,7.50
2019-03-01T06:57:29.310Z,7.40
2019-03-01T06:59:57.972Z,7.40
2019-03-01T07:02:28.006Z,7.40
2019-03-01T07:04:56.416Z,7.50
2019-03-01T07:07:24.885Z,7.40
2019-03-01T07:09:53.291Z,7.40
2019-03-01T07:12:21.692Z,7.50
2019-03-01T07:14:50.110Z,7.50
2019-03-01T07:17:18.574Z,7.50
2019-03-01T07:19:46.982Z,7.50
2019-03-01T07:22:15.394Z,7.50
2019-03-01T07:24:43.790Z,7.60
2019-03-01T07:27:12.448Z,7.60
2019-03-01T07:29:40.959Z,7.60
2019-03-01T07:32:09.419Z,7.70
2019-03-01T07:34:38.082Z,7.60
2019-03-01T07:37:06.518Z,7.60
2019-03-01T07:39:35.197Z,7.60
2019-03-01T07:42:03.594Z,7.60
2019-03-01T07:44:32.060Z,7.60
2019-03-01T07:47:00.455Z,7.60
2019-03-01T07:49:28.856Z,7.60
2019-03-01T07:51:57.251Z,7.60
2019-03-01T07:54:25.735Z,7.70
2019-03-01T07:56:54.388Z,7.80
2019-03-01T07:59:24.018Z,7.70
2019-03-01T08:01:52.699Z,7.80
2019-03-01T08:04:23.665Z,7.90
2019-03-01T08:06:51.473Z,8.00
2019-03-01T08:09:20.192Z,7.90
2019-03-01T08:11:48.863Z,7.90
2019-03-01T08:14:17.267Z,8.00
2019-03-01T08:16:45.697Z,8.00
2019-03-01T08:19:17.072Z,8.00
2019-03-01T08:21:45.864Z,8.10
2019-03-01T08:24:14.607Z,8.10
2019-03-01T08:26:43.644Z,8.20
2019-03-01T08:29:12.079Z,8.30
2019-03-01T08:31:40.611Z,8.20
2019-03-01T08:34:09.158Z,8.20
2019-03-01T08:36:38.579Z,8.20
2019-03-01T08:39:08.381Z,8.10
2019-03-01T08:41:36.868Z,8.10
2019-03-01T08:44:05.381Z,8.10
2019-03-01T08:46:33.859Z,8.00
2019-03-01T08:49:02.263Z,8.00
2019-03-01T08:51:31.158Z,8.00
2019-03-01T08:53:59.629Z,7.90
2019-03-01T08:56:28.034Z,7.90
2019-03-01T08:58:56.450Z,7.90
2019-03-01T09:01:26.271Z,7.90
2019-03-01T09:04:00.657Z,7.90
2019-03-01T09:06:29.087Z,7.90
2019-03-01T09:08:57.741Z,7.90
2019-03-01T09:11:26.226Z,7.90
2019-03-01T09:13:54.811Z,7.90
2019-03-01T09:16:23.208Z,7.90
2019-03-01T09:18:51.612Z,7.90
2019-03-01T09:21:20.026Z,7.90
2019-03-01T09:23:52.261Z,7.90
2019-03-01T09:26:19.991Z,8.00
2019-03-01T09:28:49.152Z,7.90
2019-03-01T09:31:17.823Z,7.90
2019-03-01T09:33:46.482Z,7.90
2019-03-01T09:36:21.410Z,7.90
2019-03-01T09:38:49.442Z,7.90
2019-03-01T09:41:18.093Z,7.80
2019-03-01T09:43:46.544Z,7.80
2019-03-01T09:46:15.016Z,7.80
2019-03-01T09:48:45.666Z,7.80
2019-03-01T09:51:15.784Z,7.80
2019-03-01T09:53:43.930Z,7.90
2019-03-01T09:56:12.970Z,7.90
2019-03-01T09:58:42.237Z,7.80
2019-03-01T10:01:16.512Z,7.90
2019-03-01T10:03:45.202Z,7.90
2019-03-01T10:06:13.839Z,7.90
2019-03-01T10:08:42.262Z,7.90
2019-03-01T10:11:10.683Z,7.90
2019-03-01T10:13:39.295Z,7.90
2019-03-01T10:16:08.866Z,7.90
2019-03-01T10:18:37.320Z,8.00
2019-03-01T10:21:05.714Z,8.00
2019-03-01T10:23:34.110Z,8.00
2019-03-01T10:26:02.518Z,8.10
2019-03-01T10:28:30.981Z,8.10
2019-03-01T10:31:00.116Z,8.10
2019-03-01T10:33:28.605Z,8.10
2019-03-01T10:35:57.042Z,8.10
2019-03-01T10:38:25.821Z,8.00
2019-03-01T10:40:54.455Z,8.00
2019-03-01T10:43:23.550Z,8.00
2019-03-01T10:45:52.178Z,8.00
2019-03-01T10:48:20.580Z,7.90
2019-03-01T10:50:49.001Z,7.90
2019-03-01T10:53:17.410Z,7.90
2019-03-01T10:55:45.857Z,7.80
2019-03-01T10:58:14.262Z,7.60
2019-03-01T11:00:42.672Z,7.50
2019-03-01T11:03:11.246Z,7.50
2019-03-01T11:05:39.664Z,7.50
2019-03-01T11:08:08.105Z,7.30
2019-03-01T11:10:38.578Z,7.20
2019-03-01T11:13:15.369Z,7.20
2019-03-01T11:15:43.885Z,7.20
2019-03-01T11:18:12.450Z,7.10
2019-03-01T11:20:43.834Z,7.10
2019-03-01T11:23:12.231Z,7.20
2019-03-01T11:25:40.652Z,7.10
2019-03-01T11:28:10.539Z,7.10
2019-03-01T11:30:39.294Z,7.10
2019-03-01T11:33:07.703Z,7.00
2019-03-01T11:35:36.251Z,7.00
2019-03-01T11:38:04.645Z,7.00
2019-03-01T11:40:40.993Z,7.00
2019-03-01T11:43:09.493Z,7.00
2019-03-01T11:45:38.272Z,7.00
2019-03-01T11:48:06.845Z,7.00
2019-03-01T11:50:35.252Z,7.00
2019-03-01T11:53:03.767Z,7.00
2019-03-01T11:55:32.250Z,6.90
2019-03-01T11:58:00.675Z,7.00
2019-03-01T12:00:29.829Z,6.90
2019-03-01T12:02:58.240Z,6.90
2019-03-01T12:05:27.210Z,6.90
2019-03-01T12:07:55.662Z,6.80
2019-03-01T12:10:31.095Z,6.80
2019-03-01T12:12:59.845Z,6.80
2019-03-01T12:15:28.247Z,6.80
2019-03-01T12:17:56.916Z,6.70
2019-03-01T12:20:30.297Z,6.80
2019-03-01T12:22:58.715Z,6.70
2019-03-01T12:25:27.122Z,6.70
2019-03-01T12:27:55.588Z,6.80
2019-03-01T12:30:25.487Z,6.70
2019-03-01T12:32:54.119Z,6.70
2019-03-01T12:35:22.528Z,6.80
2019-03-01T12:37:51.243Z,6.70
2019-03-01T12:40:26.992Z,6.70
2019-03-01T12:42:55.470Z,6.70
2019-03-01T12:45:23.871Z,6.70
2019-03-01T12:47:52.393Z,6.70
2019-03-01T12:50:20.860Z,6.70
2019-03-01T12:52:49.535Z,6.70
2019-03-01T12:55:20.695Z,6.70
2019-03-01T12:57:49.095Z,6.70
2019-03-01T13:00:35.086Z,6.80
2019-03-01T13:03:05.315Z,6.80
2019-03-01T13:05:33.693Z,6.80
2019-03-01T13:08:02.265Z,6.90
2019-03-01T13:10:32.602Z,6.90
2019-03-01T13:13:02.111Z,6.90
2019-03-01T13:15:31.559Z,6.90
2019-03-01T13:17:59.983Z,7.00
2019-03-01T13:20:29.905Z,7.00
2019-03-01T13:23:01.015Z,7.00
2019-03-01T13:25:29.513Z,7.00
2019-03-01T13:27:58.731Z,6.90
2019-03-01T13:30:28.275Z,6.90
2019-03-01T13:32:58.983Z,6.90
2019-03-01T13:35:27.612Z,7.00
2019-03-01T13:37:56.780Z,7.00
2019-03-01T13:40:25.671Z,6.90
2019-03-01T13:42:54.158Z,7.00
2019-03-01T13:45:25.182Z,7.00
2019-03-01T13:47:53.879Z,7.10
2019-03-01T13:50:23.009Z,7.10
2019-03-01T13:52:51.493Z,7.10
2019-03-01T13:55:22.397Z,7.20
2019-03-01T13:57:51.350Z,7.00
2019-03-01T14:00:21.357Z,6.90
2019-03-01T14:02:50.775Z,6.90
2019-03-01T14:05:19.560Z,6.90
2019-03-01T14:07:55.432Z,6.80
2019-03-01T14:10:24.265Z,6.90
2019-03-01T14:12:52.934Z,6.90
2019-03-01T14:15:21.379Z,6.90
2019-03-01T14:17:49.842Z,6.90
2019-03-01T14:20:21.083Z,6.90
2019-03-01T14:22:49.682Z,6.90
2019-03-01T14:25:18.208Z,6.90
2019-03-01T14:27:46.668Z,6.90
2019-03-01T14:30:20.382Z,6.90
2019-03-01T14:32:48.780Z,7.00
2019-03-01T14:35:20.126Z,7.00
2019-03-01T14:37:47.647Z,7.00
2019-03-01T14:40:19.028Z,7.00
2019-03-01T14:42:47.799Z,7.00
2019-03-01T14:45:18.654Z,7.00
2019-03-01T14:47:47.140Z,7.00
2019-03-01T14:50:17.994Z,7.00
2019-03-01T14:52:46.413Z,6.90
2019-03-01T14:55:19.693Z,7.00
2019-03-01T14:57:50.995Z,7.00
2019-03-01T15:00:25.479Z,7.00
2019-03-01T15:03:16.658Z,7.10
2019-03-01T15:05:43.922Z,7.10
2019-03-01T15:08:12.326Z,7.10
2019-03-01T15:10:40.740Z,7.10
2019-03-01T15:13:09.416Z,7.20
2019-03-01T15:15:37.892Z,7.20
2019-03-01T15:18:06.320Z,7.20
2019-03-01T15:20:34.725Z,7.30
2019-03-01T15:23:03.307Z,7.30
2019-03-01T15:25:31.743Z,7.30
2019-03-01T15:28:00.130Z,7.30
2019-03-01T15:30:29.273Z,7.30
2019-03-01T15:32:57.699Z,7.40
2019-03-01T15:35:26.411Z,7.30
2019-03-01T15:37:54.983Z,7.30
2019-03-01T15:40:23.683Z,7.20
2019-03-01T15:42:54.653Z,7.20
2019-03-01T15:45:22.235Z,7.30
2019-03-01T15:47:50.640Z,7.20
2019-03-01T15:50:19.114Z,7.30
2019-03-01T15:52:49.850Z,7.20
2019-03-01T15:55:17.672Z,7.30
2019-03-01T15:57:46.075Z,7.30
2019-03-01T16:00:19.350Z,7.20
2019-03-01T16:02:49.984Z,7.10
2019-03-01T16:05:17.918Z,7.10
2019-03-01T16:07:46.640Z,7.10
2019-03-01T16:10:19.490Z,7.10
2019-03-01T16:12:48.167Z,7.20
2019-03-01T16:15:17.087Z,7.10
2019-03-01T16:17:45.579Z,7.00
2019-03-01T16:20:18.373Z,6.90
2019-03-01T16:22:46.805Z,6.80
2019-03-01T16:25:17.211Z,6.70
2019-03-01T16:27:50.731Z,6.60
2019-03-01T16:30:18.902Z,6.60
2019-03-01T16:32:50.484Z,6.50
2019-03-01T16:35:20.739Z,6.50
2019-03-01T16:37:50.849Z,6.50
2019-03-01T16:40:19.496Z,6.40
2019-03-01T16:42:53.000Z,6.40
2019-03-01T16:45:21.007Z,6.30
2019-03-01T16:47:49.245Z,6.20
2019-03-01T16:50:20.064Z,6.10
2019-03-01T16:52:48.534Z,6.10
2019-03-01T16:55:27.957Z,6.00
2019-03-01T16:58:06.087Z,5.90
2019-03-01T17:00:26.109Z,5.90
2019-03-01T17:03:16.818Z,5.90
2019-03-01T17:05:42.626Z,5.80
2019-03-01T17:08:11.509Z,5.80
2019-03-01T17:10:39.942Z,5.70
2019-03-01T17:13:08.388Z,5.70
2019-03-01T17:15:37.033Z,5.70
2019-03-01T17:18:11.315Z,5.70
2019-03-01T17:20:38.372Z,5.60
2019-03-01T17:23:05.809Z,5.70
2019-03-01T17:25:34.292Z,5.60
2019-03-01T17:28:05.622Z,5.60
2019-03-01T17:30:34.039Z,5.60
2019-03-01T17:33:02.483Z,5.50
2019-03-01T17:35:30.886Z,5.50
2019-03-01T17:37:59.303Z,5.50
2019-03-01T17:40:29.371Z,5.50
2019-03-01T17:42:58.351Z,5.50
2019-03-01T17:45:29.827Z,5.40
2019-03-01T17:47:58.478Z,5.50
2019-03-01T17:50:26.892Z,5.50
2019-03-01T17:52:55.432Z,5.50
2019-03-01T17:55:26.785Z,5.40
2019-03-01T17:57:55.571Z,5.40
2019-03-01T18:00:41.973Z,5.40
2019-03-01T18:03:10.427Z,5.30
2019-03-01T18:05:40.589Z,5.20
2019-03-01T18:08:09.068Z,5.20
2019-03-01T18:10:37.502Z,5.20
2019-03-01T18:13:05.983Z,5.20
2019-03-01T18:15:34.440Z,5.10
2019-03-01T18:18:02.880Z,5.20
2019-03-01T18:20:33.887Z,5.20
2019-03-01T18:23:02.343Z,5.20
2019-03-01T18:25:32.026Z,5.20
2019-03-01T18:28:00.449Z,5.20
2019-03-01T18:30:30.747Z,5.20
2019-03-01T18:32:59.196Z,5.20
2019-03-01T18:35:27.979Z,5.20
2019-03-01T18:37:56.507Z,5.20
2019-03-01T18:40:24.911Z,5.20
2019-03-01T18:42:53.323Z,5.20
2019-03-01T18:45:47.076Z,5.20
2019-03-01T18:48:19.039Z,5.20
2019-03-01T18:50:48.625Z,5.20
2019-03-01T18:53:20.045Z,5.30
2019-03-01T18:55:52.770Z,5.20
2019-03-01T18:58:21.580Z,5.20
2019-03-01T19:00:53.813Z,5.30
2019-03-01T19:03:22.270Z,5.30
2019-03-01T19:05:52.651Z,5.30
2019-03-01T19:08:29.074Z,5.30
2019-03-01T19:11:02.915Z,5.30
2019-03-01T19:13:36.331Z,5.30
2019-03-01T19:16:28.540Z,5.30
2019-03-01T19:19:04.485Z,5.30
2019-03-01T19:21:34.942Z,5.30
2019-03-01T19:24:10.996Z,5.30
2019-03-01T19:29:30.765Z,5.30
2019-03-01T19:31:59.198Z,5.30
2019-03-01T19:34:27.846Z,5.30
2019-03-01T19:36:56.354Z,5.30
2019-03-01T19:39:24.822Z,5.30
2019-03-01T19:41:54.507Z,5.30
2019-03-01T19:44:25.660Z,5.30
2019-03-01T19:46:53.757Z,5.30
2019-03-01T19:49:22.393Z,5.30
2019-03-01T19:51:50.786Z,5.30
2019-03-01T19:54:19.187Z,5.30
2019-03-01T19:56:47.642Z,5.30
2019-03-01T19:59:16.049Z,5.30
2019-03-01T20:01:44.462Z,5.30
2019-03-01T20:04:12.862Z,5.30
2019-03-01T20:06:43.530Z,5.30
2019-03-01T20:09:11.836Z,5.30
2019-03-01T20:11:46.960Z,5.30
2019-03-01T20:14:16.915Z,5.40
2019-03-01T20:16:45.390Z,5.30
2019-03-01T20:19:21.928Z,5.40
2019-03-01T20:21:50.395Z,5.30
2019-03-01T20:24:18.914Z,5.30
2019-03-01T20:26:47.503Z,5.30
2019-03-01T20:29:16.094Z,5.30
2019-03-01T20:31:44.858Z,5.30
2019-03-01T20:34:13.262Z,5.30
2019-03-01T20:36:41.856Z,5.30
2019-03-01T20:39:11.685Z,5.40
2019-03-01T20:41:46.194Z,5.30
2019-03-01T20:44:14.622Z,5.30
2019-03-01T20:46:43.840Z,5.30
2019-03-01T20:49:12.043Z,5.30
2019-03-01T20:51:40.857Z,5.30
2019-03-01T20:54:09.259Z,5.30
2019-03-01T20:56:37.745Z,5.30
2019-03-01T20:59:06.467Z,5.30
2019-03-01T21:01:37.344Z,5.30
2019-03-01T21:04:05.732Z,5.30
2019-03-01T21:06:37.399Z,5.30
2019-03-01T21:09:06.937Z,5.20
2019-03-01T21:11:35.554Z,5.20
2019-03-01T21:14:04.030Z,5.20
2019-03-01T21:16:32.924Z,5.20
2019-03-01T21:19:01.406Z,5.20
2019-03-01T21:21:29.845Z,5.20
2019-03-01T21:23:58.282Z,5.20
2019-03-01T21:26:26.695Z,5.20
2019-03-01T21:28:55.198Z,5.20
2019-03-01T21:31:23.596Z,5.20
2019-03-01T21:33:51.998Z,5.20
2019-03-01T21:36:22.925Z,5.20
2019-03-01T21:38:52.517Z,5.20
2019-03-01T21:41:21.166Z,5.20
2019-03-01T21:43:49.642Z,5.20
2019-03-01T21:46:18.466Z,5.20
2019-03-01T21:48:47.122Z,5.20
2019-03-01T21:51:18.534Z,5.20
2019-03-01T21:53:45.954Z,5.20
2019-03-01T21:56:14.714Z,5.20
2019-03-01T21:58:43.142Z,5.20
2019-03-01T22:01:11.537Z,5.10
2019-03-01T22:03:40.719Z,5.10
2019-03-01T22:06:09.527Z,5.10
2019-03-01T22:08:37.925Z,5.10
2019-03-01T22:11:06.334Z,5.20
2019-03-01T22:13:35.727Z,5.20
2019-03-01T22:16:05.030Z,5.20
2019-03-01T22:18:33.451Z,5.20
2019-03-01T22:21:01.965Z,5.10
2019-03-01T22:23:30.373Z,5.10
2019-03-01T22:25:58.779Z,5.10
2019-03-01T22:28:27.179Z,5.10
2019-03-01T22:30:56.533Z,5.10
2019-03-01T22:33:25.769Z,5.10
2019-03-01T22:35:54.167Z,5.10
2019-03-01T22:38:22.825Z,5.10
2019-03-01T22:40:51.278Z,5.10
2019-03-01T22:43:22.514Z,5.10
2019-03-01T22:45:49.802Z,5.00
2019-03-01T22:48:18.253Z,5.00
2019-03-01T22:50:46.662Z,5.00
2019-03-01T22:53:15.058Z,5.00
2019-03-01T22:55:43.455Z,5.00
2019-03-01T22:58:11.879Z,5.00
2019-03-01T23:00:50.213Z,5.00
2019-03-01T23:03:20.247Z,5.00
2019-03-01T23:05:49.030Z,4.90
2019-03-01T23:08:17.505Z,4.90
2019-03-01T23:10:45.905Z,4.90
2019-03-01T23:13:16.907Z,4.90
2019-03-01T23:15:44.666Z,4.90
2019-03-01T23:18:13.436Z,5.00
2019-03-01T23:20:48.203Z,5.00
2019-03-01T23:23:17.815Z,5.00
2019-03-01T23:25:47.670Z,5.00
2019-03-01T23:28:16.098Z,5.00
2019-03-01T23:30:44.766Z,4.90
2019-03-01T23:33:13.426Z,5.00
2019-03-01T23:35:42.070Z,5.00
2019-03-01T23:38:11.499Z,5.00
2019-03-01T23:40:40.885Z,4.90
2019-03-01T23:43:09.656Z,4.90
2019-03-01T23:45:38.053Z,4.90
2019-03-01T23:48:06.479Z,4.90
2019-03-01T23:50:35.096Z,4.90
2019-03-01T23:53:04.163Z,4.90
2019-03-01T23:55:32.819Z,4.90
2019-03-01T23:58:05.969Z,4.90
